sensor_id;sensor_type;location;lat;lon;timestamp;pressure;altitude;pressure_sealevel;temperature;humidity
65384;BME280;51986;52.788;41.368;2023-09-12T00:01:19;99409.66;;;10.64;64.58
65384;BME280;51986;52.788;41.368;2023-09-12T00:03:46;99430.34;;;10.69;64.89
65384;BME280;51986;52.788;41.368;2023-09-12T00:06:13;99376.38;;;10.25;64.64
65384;BME280;51986;52.788;41.368;2023-09-12T00:08:40;99438.28;;;10.65;64.83
65384;BME280;51986;52.788;41.368;2023-09-12T00:11:09;99411.16;;;10.65;64.29
65384;BME280;51986;52.788;41.368;2023-09-12T00:13:38;99428.25;;;10.42;65.02
65384;BME280;51986;52.788;41.368;2023-09-12T00:16:05;99398.06;;;10.54;65.18
65384;BME280;51986;52.788;41.368;2023-09-12T00:18:32;99421.34;;;10.63;65.18
65384;BME280;51986;52.788;41.368;2023-09-12T00:21:00;99420.66;;;10.51;65.43
65384;BME280;51986;52.788;41.368;2023-09-12T00:23:27;99427.41;;;10.60;64.88
65384;BME280;51986;52.788;41.368;2023-09-12T00:25:54;99414.66;;;10.47;65.15
65384;BME280;51986;52.788;41.368;2023-09-12T00:28:21;99428.88;;;10.61;65.19
65384;BME280;51986;52.788;41.368;2023-09-12T00:30:49;99425.06;;;10.69;65.29
65384;BME280;51986;52.788;41.368;2023-09-12T00:33:16;99428.91;;;10.57;65.25
65384;BME280;51986;52.788;41.368;2023-09-12T00:35:43;99378.44;;;10.55;65.81
65384;BME280;51986;52.788;41.368;2023-09-12T00:38:11;99425.09;;;10.62;65.58
65384;BME280;51986;52.788;41.368;2023-09-12T00:40:38;99431.19;;;10.59;65.06
65384;BME280;51986;52.788;41.368;2023-09-12T00:43:05;99407.84;;;10.53;65.45
65384;BME280;51986;52.788;41.368;2023-09-12T00:45:32;99413.09;;;10.57;65.59
65384;BME280;51986;52.788;41.368;2023-09-12T00:48:00;99427.81;;;10.51;66.32
65384;BME280;51986;52.788;41.368;2023-09-12T00:50:29;99425.94;;;10.51;65.95
65384;BME280;51986;52.788;41.368;2023-09-12T00:52:57;99428.97;;;10.53;66.26
65384;BME280;51986;52.788;41.368;2023-09-12T00:55:24;99422.28;;;10.35;66.92
65384;BME280;51986;52.788;41.368;2023-09-12T00:57:53;99425.28;;;10.33;67.30
65384;BME280;51986;52.788;41.368;2023-09-12T01:00:20;99430.56;;;10.37;67.14
65384;BME280;51986;52.788;41.368;2023-09-12T01:02:48;99435.09;;;10.36;67.27
65384;BME280;51986;52.788;41.368;2023-09-12T01:05:15;99451.63;;;10.44;67.20
65384;BME280;51986;52.788;41.368;2023-09-12T01:07:43;99447.47;;;10.43;66.98
65384;BME280;51986;52.788;41.368;2023-09-12T01:10:11;99406.50;;;10.24;68.05
65384;BME280;51986;52.788;41.368;2023-09-12T01:12:38;99433.13;;;10.47;67.50
65384;BME280;51986;52.788;41.368;2023-09-12T01:15:06;99429.03;;;10.39;67.51
65384;BME280;51986;52.788;41.368;2023-09-12T01:17:33;99417.72;;;10.42;68.11
65384;BME280;51986;52.788;41.368;2023-09-12T01:20:02;99406.81;;;10.40;67.85
65384;BME280;51986;52.788;41.368;2023-09-12T01:22:55;99422.94;;;10.49;67.80
65384;BME280;51986;52.788;41.368;2023-09-12T01:28:07;99438.47;;;10.33;67.64
65384;BME280;51986;52.788;41.368;2023-09-12T01:30:38;99427.66;;;10.13;68.77
65384;BME280;51986;52.788;41.368;2023-09-12T01:33:06;99415.97;;;10.14;68.75
65384;BME280;51986;52.788;41.368;2023-09-12T01:35:33;99416.00;;;10.11;68.82
65384;BME280;51986;52.788;41.368;2023-09-12T01:38:00;99421.28;;;10.11;68.89
65384;BME280;51986;52.788;41.368;2023-09-12T01:40:34;99436.75;;;10.01;68.93
65384;BME280;51986;52.788;41.368;2023-09-12T01:43:04;99442.00;;;10.01;69.37
65384;BME280;51986;52.788;41.368;2023-09-12T01:45:31;99426.63;;;9.93;68.87
65384;BME280;51986;52.788;41.368;2023-09-12T01:48:00;99423.97;;;9.96;69.34
65384;BME280;51986;52.788;41.368;2023-09-12T01:50:28;99420.19;;;9.94;69.09
65384;BME280;51986;52.788;41.368;2023-09-12T01:52:55;99430.00;;;9.97;69.47
65384;BME280;51986;52.788;41.368;2023-09-12T01:55:24;99415.69;;;9.94;69.27
65384;BME280;51986;52.788;41.368;2023-09-12T01:57:52;99439.84;;;9.86;70.00
65384;BME280;51986;52.788;41.368;2023-09-12T02:00:19;99448.44;;;10.00;69.73
65384;BME280;51986;52.788;41.368;2023-09-12T02:02:48;99420.66;;;9.82;69.83
65384;BME280;51986;52.788;41.368;2023-09-12T02:05:17;99423.91;;;10.07;69.83
65384;BME280;51986;52.788;41.368;2023-09-12T02:07:46;99422.50;;;9.88;70.41
65384;BME280;51986;52.788;41.368;2023-09-12T02:10:13;99448.03;;;10.05;69.64
65384;BME280;51986;52.788;41.368;2023-09-12T02:12:41;99446.47;;;10.15;69.36
65384;BME280;51986;52.788;41.368;2023-09-12T02:15:08;99431.50;;;9.94;69.67
65384;BME280;51986;52.788;41.368;2023-09-12T02:17:36;99452.91;;;10.03;69.67
65384;BME280;51986;52.788;41.368;2023-09-12T02:20:03;99431.53;;;9.91;70.07
65384;BME280;51986;52.788;41.368;2023-09-12T02:22:30;99444.66;;;10.01;70.05
65384;BME280;51986;52.788;41.368;2023-09-12T02:24:57;99451.06;;;9.93;70.16
65384;BME280;51986;52.788;41.368;2023-09-12T02:27:24;99471.34;;;10.11;69.89
65384;BME280;51986;52.788;41.368;2023-09-12T02:29:52;99472.50;;;10.02;69.99
65384;BME280;51986;52.788;41.368;2023-09-12T02:32:19;99471.34;;;10.07;69.96
65384;BME280;51986;52.788;41.368;2023-09-12T02:34:46;99470.66;;;9.92;70.25
65384;BME280;51986;52.788;41.368;2023-09-12T02:37:13;99475.19;;;9.88;71.05
65384;BME280;51986;52.788;41.368;2023-09-12T02:39:40;99479.72;;;9.84;71.31
65384;BME280;51986;52.788;41.368;2023-09-12T02:42:08;99456.41;;;9.79;71.57
65384;BME280;51986;52.788;41.368;2023-09-12T02:44:35;99495.50;;;9.91;72.18
65384;BME280;51986;52.788;41.368;2023-09-12T02:47:03;99477.13;;;9.77;72.32
65384;BME280;51986;52.788;41.368;2023-09-12T02:49:31;99491.81;;;9.64;73.46
65384;BME280;51986;52.788;41.368;2023-09-12T02:51:58;99471.47;;;9.75;72.90
65384;BME280;51986;52.788;41.368;2023-09-12T02:54:25;99480.13;;;9.72;74.66
65384;BME280;51986;52.788;41.368;2023-09-12T02:56:52;99485.81;;;9.67;75.25
65384;BME280;51986;52.788;41.368;2023-09-12T02:59:21;99503.13;;;9.50;76.44
65384;BME280;51986;52.788;41.368;2023-09-12T03:01:48;99483.94;;;9.49;76.46
65384;BME280;51986;52.788;41.368;2023-09-12T03:04:15;99475.34;;;9.24;77.63
65384;BME280;51986;52.788;41.368;2023-09-12T03:06:42;99518.16;;;9.46;77.58
65384;BME280;51986;52.788;41.368;2023-09-12T03:09:09;99526.44;;;9.37;78.29
65384;BME280;51986;52.788;41.368;2023-09-12T03:11:36;99503.13;;;9.18;77.94
65384;BME280;51986;52.788;41.368;2023-09-12T03:14:03;99513.66;;;9.46;78.10
65384;BME280;51986;52.788;41.368;2023-09-12T03:16:30;99491.84;;;9.46;77.70
65384;BME280;51986;52.788;41.368;2023-09-12T03:18:59;99504.66;;;9.29;78.75
65384;BME280;51986;52.788;41.368;2023-09-12T03:21:26;99489.25;;;9.24;79.80
65384;BME280;51986;52.788;41.368;2023-09-12T03:23:53;99523.81;;;9.37;79.08
65384;BME280;51986;52.788;41.368;2023-09-12T03:26:21;99527.97;;;9.31;79.91
65384;BME280;51986;52.788;41.368;2023-09-12T03:28:49;99514.81;;;9.20;80.12
65384;BME280;51986;52.788;41.368;2023-09-12T03:31:20;99507.66;;;9.03;80.47
65384;BME280;51986;52.788;41.368;2023-09-12T03:33:47;99517.78;;;8.83;82.14
65384;BME280;51986;52.788;41.368;2023-09-12T03:36:14;99518.91;;;8.82;81.80
65384;BME280;51986;52.788;41.368;2023-09-12T03:38:41;99537.34;;;9.03;81.22
65384;BME280;51986;52.788;41.368;2023-09-12T03:41:09;99532.06;;;8.82;81.87
65384;BME280;51986;52.788;41.368;2023-09-12T03:43:37;99512.16;;;8.92;81.41
65384;BME280;51986;52.788;41.368;2023-09-12T03:46:04;99539.63;;;9.05;81.23
65384;BME280;51986;52.788;41.368;2023-09-12T03:48:33;99520.44;;;8.90;81.16
65384;BME280;51986;52.788;41.368;2023-09-12T03:51:00;99531.28;;;8.74;81.14
65384;BME280;51986;52.788;41.368;2023-09-12T03:53:27;99562.81;;;8.71;81.32
65384;BME280;51986;52.788;41.368;2023-09-12T03:55:54;99538.44;;;8.81;80.98
65384;BME280;51986;52.788;41.368;2023-09-12T03:58:21;99547.09;;;8.85;80.97
65384;BME280;51986;52.788;41.368;2023-09-12T04:00:49;99568.13;;;8.82;80.92
65384;BME280;51986;52.788;41.368;2023-09-12T04:03:16;99574.50;;;8.84;81.17
65384;BME280;51986;52.788;41.368;2023-09-12T04:05:46;99549.38;;;8.90;80.42
65384;BME280;51986;52.788;41.368;2023-09-12T04:08:13;99530.22;;;9.18;79.57
65384;BME280;51986;52.788;41.368;2023-09-12T04:10:40;99594.16;;;9.29;79.29
65384;BME280;51986;52.788;41.368;2023-09-12T04:13:07;99560.66;;;9.09;80.23
65384;BME280;51986;52.788;41.368;2023-09-12T04:15:34;99547.53;;;9.34;79.36
65384;BME280;51986;52.788;41.368;2023-09-12T04:18:02;99533.63;;;9.47;78.61
65384;BME280;51986;52.788;41.368;2023-09-12T04:20:29;99564.44;;;9.72;77.63
65384;BME280;51986;52.788;41.368;2023-09-12T04:23:01;99572.69;;;9.74;77.85
65384;BME280;51986;52.788;41.368;2023-09-12T04:25:29;99562.91;;;9.82;76.78
65384;BME280;51986;52.788;41.368;2023-09-12T04:28:02;99551.63;;;9.77;76.58
65384;BME280;51986;52.788;41.368;2023-09-12T04:30:36;99557.25;;;9.83;77.04
65384;BME280;51986;52.788;41.368;2023-09-12T04:33:04;99556.47;;;9.90;76.37
65384;BME280;51986;52.788;41.368;2023-09-12T04:35:34;99563.25;;;10.01;75.82
65384;BME280;51986;52.788;41.368;2023-09-12T04:38:02;99570.69;;;10.28;74.84
65384;BME280;51986;52.788;41.368;2023-09-12T04:40:29;99544.41;;;10.10;74.95
65384;BME280;51986;52.788;41.368;2023-09-12T04:42:59;99549.28;;;10.08;74.89
65384;BME280;51986;52.788;41.368;2023-09-12T04:45:27;99585.03;;;10.20;74.26
65384;BME280;51986;52.788;41.368;2023-09-12T04:47:54;99565.50;;;9.99;75.18
65384;BME280;51986;52.788;41.368;2023-09-12T04:50:21;99571.94;;;9.91;75.49
65384;BME280;51986;52.788;41.368;2023-09-12T04:52:49;99577.56;;;10.00;75.82
65384;BME280;51986;52.788;41.368;2023-09-12T04:55:18;99574.53;;;10.05;75.59
65384;BME280;51986;52.788;41.368;2023-09-12T04:57:45;99577.50;;;10.18;74.85
65384;BME280;51986;52.788;41.368;2023-09-12T05:00:13;99575.66;;;10.04;75.41
65384;BME280;51986;52.788;41.368;2023-09-12T05:02:43;99562.47;;;10.04;75.87
65384;BME280;51986;52.788;41.368;2023-09-12T05:05:10;99585.44;;;10.15;75.38
65384;BME280;51986;52.788;41.368;2023-09-12T05:07:38;99588.13;;;9.86;75.71
65384;BME280;51986;52.788;41.368;2023-09-12T05:10:06;99591.44;;;10.15;75.93
65384;BME280;51986;52.788;41.368;2023-09-12T05:12:35;99599.75;;;10.03;75.88
65384;BME280;51986;52.788;41.368;2023-09-12T05:15:03;99592.59;;;10.03;75.91
65384;BME280;51986;52.788;41.368;2023-09-12T05:17:30;99615.13;;;10.33;75.62
65384;BME280;51986;52.788;41.368;2023-09-12T05:19:57;99589.22;;;9.99;75.85
65384;BME280;51986;52.788;41.368;2023-09-12T05:22:24;99599.38;;;10.12;75.55
65384;BME280;51986;52.788;41.368;2023-09-12T05:24:52;99599.38;;;10.04;75.16
65384;BME280;51986;52.788;41.368;2023-09-12T05:27:19;99592.97;;;10.05;75.11
65384;BME280;51986;52.788;41.368;2023-09-12T05:29:46;99573.09;;;9.76;75.59
65384;BME280;51986;52.788;41.368;2023-09-12T05:32:13;99603.56;;;9.63;76.50
65384;BME280;51986;52.788;41.368;2023-09-12T05:34:40;99603.56;;;9.70;76.78
65384;BME280;51986;52.788;41.368;2023-09-12T05:37:07;99631.41;;;9.78;76.37
65384;BME280;51986;52.788;41.368;2023-09-12T05:39:34;99623.50;;;9.57;77.07
65384;BME280;51986;52.788;41.368;2023-09-12T05:42:01;99627.66;;;9.83;76.91
65384;BME280;51986;52.788;41.368;2023-09-12T05:44:28;99634.03;;;9.89;76.58
65384;BME280;51986;52.788;41.368;2023-09-12T05:46:55;99602.41;;;9.89;76.31
65384;BME280;51986;52.788;41.368;2023-09-12T05:49:22;99616.69;;;10.05;75.97
65384;BME280;51986;52.788;41.368;2023-09-12T05:51:51;99611.78;;;10.07;75.62
65384;BME280;51986;52.788;41.368;2023-09-12T05:54:18;99630.97;;;10.19;75.21
65384;BME280;51986;52.788;41.368;2023-09-12T05:56:45;99656.53;;;10.50;74.30
65384;BME280;51986;52.788;41.368;2023-09-12T05:59:13;99628.69;;;10.42;74.03
65384;BME280;51986;52.788;41.368;2023-09-12T06:01:40;99618.91;;;10.36;74.52
65384;BME280;51986;52.788;41.368;2023-09-12T06:04:07;99638.81;;;10.51;73.75
65384;BME280;51986;52.788;41.368;2023-09-12T06:06:34;99615.41;;;10.67;72.88
65384;BME280;51986;52.788;41.368;2023-09-12T06:09:02;99617.25;;;10.77;72.82
65384;BME280;51986;52.788;41.368;2023-09-12T06:11:29;99626.94;;;10.95;72.03
65384;BME280;51986;52.788;41.368;2023-09-12T06:13:56;99609.34;;;10.70;72.02
65384;BME280;51986;52.788;41.368;2023-09-12T06:16:26;99637.22;;;10.78;72.61
65384;BME280;51986;52.788;41.368;2023-09-12T06:18:53;99629.31;;;10.78;72.60
65384;BME280;51986;52.788;41.368;2023-09-12T06:21:20;99622.47;;;10.92;72.17
65384;BME280;51986;52.788;41.368;2023-09-12T06:24:00;99612.59;;;10.99;70.84
65384;BME280;51986;52.788;41.368;2023-09-12T06:26:34;99637.28;;;10.61;73.02
65384;BME280;51986;52.788;41.368;2023-09-12T06:29:01;99627.78;;;10.81;72.52
65384;BME280;51986;52.788;41.368;2023-09-12T06:31:28;99635.94;;;11.08;72.08
65384;BME280;51986;52.788;41.368;2023-09-12T06:33:55;99635.31;;;10.86;72.29
65384;BME280;51986;52.788;41.368;2023-09-12T06:36:26;99645.03;;;11.00;71.63
65384;BME280;51986;52.788;41.368;2023-09-12T06:38:56;99639.03;;;10.92;72.20
65384;BME280;51986;52.788;41.368;2023-09-12T06:41:24;99633.53;;;11.31;71.18
65384;BME280;51986;52.788;41.368;2023-09-12T06:43:51;99635.66;;;11.54;70.66
65384;BME280;51986;52.788;41.368;2023-09-12T06:46:18;99643.88;;;11.64;69.78
65384;BME280;51986;52.788;41.368;2023-09-12T06:48:45;99638.63;;;11.56;69.56
65384;BME280;51986;52.788;41.368;2023-09-12T06:51:12;99634.06;;;11.60;69.26
65384;BME280;51986;52.788;41.368;2023-09-12T06:53:43;99651.00;;;11.74;68.16
65384;BME280;51986;52.788;41.368;2023-09-12T06:56:10;99636.22;;;11.80;68.33
65384;BME280;51986;52.788;41.368;2023-09-12T06:58:38;99647.41;;;12.36;67.27
65384;BME280;51986;52.788;41.368;2023-09-12T07:01:07;99638.72;;;12.35;67.05
65384;BME280;51986;52.788;41.368;2023-09-12T07:03:35;99644.56;;;12.54;66.27
65384;BME280;51986;52.788;41.368;2023-09-12T07:06:03;99619.75;;;12.41;66.42
65384;BME280;51986;52.788;41.368;2023-09-12T07:08:30;99648.13;;;12.36;66.95
65384;BME280;51986;52.788;41.368;2023-09-12T07:10:58;99634.94;;;12.33;67.23
65384;BME280;51986;52.788;41.368;2023-09-12T07:13:25;99637.69;;;12.60;66.25
65384;BME280;51986;52.788;41.368;2023-09-12T07:15:52;99650.31;;;12.45;65.93
65384;BME280;51986;52.788;41.368;2023-09-12T07:18:19;99649.06;;;12.53;65.39
65384;BME280;51986;52.788;41.368;2023-09-12T07:20:46;99634.44;;;12.76;64.77
65384;BME280;51986;52.788;41.368;2023-09-12T07:23:30;99658.31;;;12.72;65.08
65384;BME280;51986;52.788;41.368;2023-09-12T07:25:58;99669.91;;;12.51;66.02
65384;BME280;51986;52.788;41.368;2023-09-12T07:28:26;99637.31;;;12.88;64.63
65384;BME280;51986;52.788;41.368;2023-09-12T07:30:56;99649.09;;;12.84;64.80
65384;BME280;51986;52.788;41.368;2023-09-12T07:33:24;99658.69;;;13.05;64.43
65384;BME280;51986;52.788;41.368;2023-09-12T07:35:54;99637.88;;;12.73;65.02
65384;BME280;51986;52.788;41.368;2023-09-12T07:38:21;99659.41;;;12.78;65.40
65384;BME280;51986;52.788;41.368;2023-09-12T07:40:48;99662.72;;;13.17;64.46
65384;BME280;51986;52.788;41.368;2023-09-12T07:43:16;99662.03;;;13.09;64.46
65384;BME280;51986;52.788;41.368;2023-09-12T07:45:43;99653.25;;;13.16;63.64
65384;BME280;51986;52.788;41.368;2023-09-12T07:48:10;99633.41;;;12.97;64.58
65384;BME280;51986;52.788;41.368;2023-09-12T07:50:41;99650.75;;;13.32;64.18
65384;BME280;51986;52.788;41.368;2023-09-12T07:53:08;99644.63;;;13.35;62.76
65384;BME280;51986;52.788;41.368;2023-09-12T07:55:38;99643.88;;;13.34;62.53
65384;BME280;51986;52.788;41.368;2023-09-12T07:58:05;99660.25;;;13.80;61.13
65384;BME280;51986;52.788;41.368;2023-09-12T08:00:32;99654.81;;;13.87;60.73
65384;BME280;51986;52.788;41.368;2023-09-12T08:03:03;99623.88;;;13.80;61.89
65384;BME280;51986;52.788;41.368;2023-09-12T08:05:30;99662.69;;;14.37;59.69
65384;BME280;51986;52.788;41.368;2023-09-12T08:07:57;99648.31;;;14.11;59.73
65384;BME280;51986;52.788;41.368;2023-09-12T08:10:24;99653.22;;;14.36;59.97
65384;BME280;51986;52.788;41.368;2023-09-12T08:12:51;99652.28;;;14.83;58.10
65384;BME280;51986;52.788;41.368;2023-09-12T08:15:19;99630.66;;;15.37;56.08
65384;BME280;51986;52.788;41.368;2023-09-12T08:17:46;99636.72;;;15.01;57.88
65384;BME280;51986;52.788;41.368;2023-09-12T08:20:15;99634.94;;;15.14;57.34
65384;BME280;51986;52.788;41.368;2023-09-12T08:22:42;99647.41;;;15.17;57.17
65384;BME280;51986;52.788;41.368;2023-09-12T08:25:10;99623.03;;;15.03;56.94
65384;BME280;51986;52.788;41.368;2023-09-12T08:27:37;99636.72;;;15.37;56.08
65384;BME280;51986;52.788;41.368;2023-09-12T08:30:06;99640.31;;;15.11;55.59
65384;BME280;51986;52.788;41.368;2023-09-12T08:32:33;99641.63;;;15.03;56.68
65384;BME280;51986;52.788;41.368;2023-09-12T08:35:03;99641.28;;;15.37;56.20
65384;BME280;51986;52.788;41.368;2023-09-12T08:37:30;99626.22;;;15.63;55.33
65384;BME280;51986;52.788;41.368;2023-09-12T08:39:57;99637.94;;;15.49;54.83
65384;BME280;51986;52.788;41.368;2023-09-12T08:42:26;99622.78;;;15.79;54.36
65384;BME280;51986;52.788;41.368;2023-09-12T08:44:54;99631.50;;;15.79;54.44
65384;BME280;51986;52.788;41.368;2023-09-12T08:47:23;99639.06;;;16.68;52.52
65384;BME280;51986;52.788;41.368;2023-09-12T08:49:52;99638.38;;;16.38;52.63
65384;BME280;51986;52.788;41.368;2023-09-12T08:52:21;99621.72;;;16.89;51.32
65384;BME280;51986;52.788;41.368;2023-09-12T08:54:50;99653.31;;;16.19;52.04
65384;BME280;51986;52.788;41.368;2023-09-12T08:57:17;99633.44;;;15.79;52.78
65384;BME280;51986;52.788;41.368;2023-09-12T08:59:47;99630.03;;;16.24;52.17
65384;BME280;51986;52.788;41.368;2023-09-12T09:02:15;99602.91;;;16.12;52.00
65384;BME280;51986;52.788;41.368;2023-09-12T09:04:48;99610.06;;;16.15;52.18
65384;BME280;51986;52.788;41.368;2023-09-12T09:07:20;99637.28;;;16.36;51.33
65384;BME280;51986;52.788;41.368;2023-09-12T09:09:49;99604.69;;;16.03;52.96
65384;BME280;51986;52.788;41.368;2023-09-12T09:12:19;99612.50;;;16.39;52.83
65384;BME280;51986;52.788;41.368;2023-09-12T09:14:46;99635.13;;;16.73;51.08
65384;BME280;51986;52.788;41.368;2023-09-12T09:17:14;99610.22;;;16.92;50.14
65384;BME280;51986;52.788;41.368;2023-09-12T09:20:01;99608.19;;;16.96;49.29
65384;BME280;51986;52.788;41.368;2023-09-12T09:22:28;99623.69;;;17.61;48.80
65384;BME280;51986;52.788;41.368;2023-09-12T09:25:10;99621.84;;;17.24;49.49
65384;BME280;51986;52.788;41.368;2023-09-12T09:27:41;99610.22;;;16.92;49.58
65384;BME280;51986;52.788;41.368;2023-09-12T09:30:09;99607.22;;;17.03;49.62
65384;BME280;51986;52.788;41.368;2023-09-12T09:32:36;99638.78;;;17.30;48.72
65384;BME280;51986;52.788;41.368;2023-09-12T09:35:04;99623.84;;;17.32;49.02
65384;BME280;51986;52.788;41.368;2023-09-12T09:37:31;99624.63;;;17.20;49.11
65384;BME280;51986;52.788;41.368;2023-09-12T09:40:01;99624.38;;;17.14;49.71
65384;BME280;51986;52.788;41.368;2023-09-12T09:42:29;99609.88;;;17.03;49.73
65384;BME280;51986;52.788;41.368;2023-09-12T09:44:58;99640.03;;;16.74;49.38
65384;BME280;51986;52.788;41.368;2023-09-12T09:47:25;99619.47;;;16.62;49.49
65384;BME280;51986;52.788;41.368;2023-09-12T09:49:54;99608.72;;;16.78;48.64
65384;BME280;51986;52.788;41.368;2023-09-12T09:52:25;99620.66;;;16.86;48.58
65384;BME280;51986;52.788;41.368;2023-09-12T09:54:53;99632.81;;;17.26;48.33
65384;BME280;51986;52.788;41.368;2023-09-12T09:57:20;99624.50;;;17.11;49.50
65384;BME280;51986;52.788;41.368;2023-09-12T09:59:51;99626.41;;;17.36;48.26
65384;BME280;51986;52.788;41.368;2023-09-12T10:02:22;99629.59;;;17.43;48.57
65384;BME280;51986;52.788;41.368;2023-09-12T10:04:54;99621.09;;;17.23;48.33
65384;BME280;51986;52.788;41.368;2023-09-12T10:07:24;99638.78;;;16.91;48.41
65384;BME280;51986;52.788;41.368;2023-09-12T10:09:52;99639.53;;;17.43;47.62
65384;BME280;51986;52.788;41.368;2023-09-12T10:12:20;99611.75;;;17.88;47.18
65384;BME280;51986;52.788;41.368;2023-09-12T10:14:50;99618.22;;;17.65;47.39
65384;BME280;51986;52.788;41.368;2023-09-12T10:17:26;99620.47;;;18.01;46.38
65384;BME280;51986;52.788;41.368;2023-09-12T10:20:02;99605.88;;;17.93;46.87
65384;BME280;51986;52.788;41.368;2023-09-12T10:22:39;99624.09;;;17.72;46.84
65384;BME280;51986;52.788;41.368;2023-09-12T10:25:11;99622.81;;;17.64;46.39
65384;BME280;51986;52.788;41.368;2023-09-12T10:27:43;99606.50;;;18.41;44.85
65384;BME280;51986;52.788;41.368;2023-09-12T10:30:10;99622.28;;;18.48;44.39
65384;BME280;51986;52.788;41.368;2023-09-12T10:32:42;99582.75;;;17.99;44.79
65384;BME280;51986;52.788;41.368;2023-09-12T10:35:13;99616.59;;;18.15;44.07
65384;BME280;51986;52.788;41.368;2023-09-12T10:37:41;99630.25;;;18.04;45.08
65384;BME280;51986;52.788;41.368;2023-09-12T10:40:14;99613.41;;;17.72;46.19
65384;BME280;51986;52.788;41.368;2023-09-12T10:42:44;99611.25;;;18.15;43.92
65384;BME280;51986;52.788;41.368;2023-09-12T10:45:12;99593.88;;;18.10;44.50
65384;BME280;51986;52.788;41.368;2023-09-12T10:47:39;99621.03;;;18.18;44.42
65384;BME280;51986;52.788;41.368;2023-09-12T10:50:08;99601.94;;;18.19;44.35
65384;BME280;51986;52.788;41.368;2023-09-12T10:52:36;99612.56;;;18.10;44.12
65384;BME280;51986;52.788;41.368;2023-09-12T10:55:04;99612.53;;;17.76;44.05
65384;BME280;51986;52.788;41.368;2023-09-12T10:57:33;99600.31;;;17.65;44.83
65384;BME280;51986;52.788;41.368;2023-09-12T11:02:37;99622.34;;;18.13;44.86
65384;BME280;51986;52.788;41.368;2023-09-12T11:05:06;99608.41;;;18.40;44.08
65384;BME280;51986;52.788;41.368;2023-09-12T11:07:43;99618.84;;;18.79;43.74
65384;BME280;51986;52.788;41.368;2023-09-12T11:12:42;99642.44;;;18.05;44.80
65384;BME280;51986;52.788;41.368;2023-09-12T11:15:10;99611.06;;;18.62;44.08
65384;BME280;51986;52.788;41.368;2023-09-12T11:17:39;99593.84;;;19.04;42.42
65384;BME280;51986;52.788;41.368;2023-09-12T11:20:06;99565.34;;;19.01;42.58
65384;BME280;51986;52.788;41.368;2023-09-12T11:22:34;99591.06;;;18.76;41.66
65384;BME280;51986;52.788;41.368;2023-09-12T11:25:02;99587.03;;;18.62;42.40
65384;BME280;51986;52.788;41.368;2023-09-12T11:30:14;99601.91;;;18.41;42.66
65384;BME280;51986;52.788;41.368;2023-09-12T11:32:45;99599.25;;;18.19;43.05
65384;BME280;51986;52.788;41.368;2023-09-12T11:35:14;99591.44;;;18.56;42.64
65384;BME280;51986;52.788;41.368;2023-09-12T11:37:51;99584.31;;;18.53;41.83
65384;BME280;51986;52.788;41.368;2023-09-12T11:43:02;99592.72;;;18.83;41.82
65384;BME280;51986;52.788;41.368;2023-09-12T11:45:31;99600.47;;;19.39;40.98
65384;BME280;51986;52.788;41.368;2023-09-12T11:48:02;99604.47;;;18.85;41.26
65384;BME280;51986;52.788;41.368;2023-09-12T11:50:33;99602.97;;;19.15;41.18
65384;BME280;51986;52.788;41.368;2023-09-12T11:53:05;99564.25;;;18.89;41.75
65384;BME280;51986;52.788;41.368;2023-09-12T11:55:50;99573.06;;;18.98;41.25
65384;BME280;51986;52.788;41.368;2023-09-12T11:58:19;99589.56;;;19.06;40.80
65384;BME280;51986;52.788;41.368;2023-09-12T12:00:47;99566.31;;;18.85;42.23
65384;BME280;51986;52.788;41.368;2023-09-12T12:03:16;99589.47;;;18.88;41.71
65384;BME280;51986;52.788;41.368;2023-09-12T12:05:47;99569.09;;;19.21;41.21
65384;BME280;51986;52.788;41.368;2023-09-12T12:08:15;99560.63;;;19.32;40.73
65384;BME280;51986;52.788;41.368;2023-09-12T12:10:57;99568.78;;;19.29;41.12
65384;BME280;51986;52.788;41.368;2023-09-12T12:13:25;99553.63;;;19.07;41.16
65384;BME280;51986;52.788;41.368;2023-09-12T12:15:52;99584.28;;;19.24;39.71
65384;BME280;51986;52.788;41.368;2023-09-12T12:18:19;99561.69;;;19.71;39.30
65384;BME280;51986;52.788;41.368;2023-09-12T12:20:47;99575.50;;;18.84;40.68
65384;BME280;51986;52.788;41.368;2023-09-12T12:23:14;99579.63;;;18.75;41.16
65384;BME280;51986;52.788;41.368;2023-09-12T12:25:41;99561.78;;;19.13;40.31
65384;BME280;51986;52.788;41.368;2023-09-12T12:28:10;99540.00;;;19.60;38.88
65384;BME280;51986;52.788;41.368;2023-09-12T12:30:37;99556.94;;;19.39;39.89
65384;BME280;51986;52.788;41.368;2023-09-12T12:33:11;99557.84;;;19.63;39.88
65384;BME280;51986;52.788;41.368;2023-09-12T12:36:05;99568.34;;;19.12;40.63
65384;BME280;51986;52.788;41.368;2023-09-12T12:38:46;99574.31;;;18.85;41.28
65384;BME280;51986;52.788;41.368;2023-09-12T12:41:24;99571.88;;;19.09;40.80
65384;BME280;51986;52.788;41.368;2023-09-12T12:43:56;99583.31;;;19.09;40.50
65384;BME280;51986;52.788;41.368;2023-09-12T12:46:23;99588.97;;;19.02;40.94
65384;BME280;51986;52.788;41.368;2023-09-12T12:48:50;99565.47;;;18.97;41.50
65384;BME280;51986;52.788;41.368;2023-09-12T12:51:19;99559.88;;;19.13;41.25
65384;BME280;51986;52.788;41.368;2023-09-12T12:53:48;99564.16;;;19.02;40.81
65384;BME280;51986;52.788;41.368;2023-09-12T12:56:22;99552.50;;;18.86;40.75
65384;BME280;51986;52.788;41.368;2023-09-12T12:58:55;99566.69;;;19.05;41.20
65384;BME280;51986;52.788;41.368;2023-09-12T13:01:22;99558.03;;;18.92;41.10
65384;BME280;51986;52.788;41.368;2023-09-12T13:03:50;99572.97;;;18.80;41.49
65384;BME280;51986;52.788;41.368;2023-09-12T13:06:17;99572.69;;;18.78;41.41
65384;BME280;51986;52.788;41.368;2023-09-12T13:08:46;99577.56;;;18.80;41.88
65384;BME280;51986;52.788;41.368;2023-09-12T13:11:14;99570.94;;;18.53;41.83
65384;BME280;51986;52.788;41.368;2023-09-12T13:13:44;99573.09;;;18.36;41.78